createdAt,value
2022-08-22T00:01:14.077Z,6.30
2022-08-22T00:03:01.583Z,5.70
2022-08-22T00:03:07.174Z,3.65
2022-08-22T00:03:33.219Z,6.63
2022-08-22T00:05:51.565Z,7.32
2022-08-22T00:08:07.678Z,7.05
2022-08-22T00:10:24.929Z,7.85
2022-08-22T00:12:37.657Z,6.72
2022-08-22T00:14:52.110Z,7.30
2022-08-22T00:17:06.414Z,6.65
2022-08-22T00:19:24.147Z,7.05
2022-08-22T00:21:45.280Z,6.43
2022-08-22T00:23:56.890Z,7.05
2022-08-22T00:26:09.919Z,6.30
2022-08-22T00:28:24.130Z,7.07
2022-08-22T00:30:34.426Z,8.15
2022-08-22T00:32:45.890Z,6.60
2022-08-22T00:35:01.634Z,6.47
2022-08-22T00:37:20.396Z,7.28
2022-08-22T00:39:35.325Z,6.65
2022-08-22T00:42:31.604Z,7.55
2022-08-22T00:45:21.850Z,6.80
2022-08-22T00:47:47.870Z,7.13
2022-08-22T00:50:25.015Z,7.60
2022-08-22T00:53:16.239Z,7.43
2022-08-22T00:55:39.602Z,7.30
2022-08-22T00:58:02.514Z,8.02
2022-08-22T01:00:22.263Z,6.68
2022-08-22T01:02:41.740Z,6.85
2022-08-22T01:05:09.975Z,7.50
2022-08-22T01:07:38.626Z,7.25
2022-08-22T01:10:00.848Z,8.13
2022-08-22T01:12:22.456Z,8.25
2022-08-22T01:14:45.672Z,7.80
2022-08-22T01:17:14.049Z,7.90
2022-08-22T01:19:49.070Z,7.57
2022-08-22T01:22:32.247Z,6.80
2022-08-22T01:25:26.220Z,7.40
2022-08-22T01:28:12.688Z,7.32
2022-08-22T01:30:34.009Z,7.75
2022-08-22T01:33:14.716Z,7.78
2022-08-22T01:35:43.693Z,7.20
2022-08-22T01:38:23.658Z,6.97
2022-08-22T01:41:06.317Z,7.32
2022-08-22T01:43:59.700Z,6.22
2022-08-22T01:46:28.745Z,7.00
2022-08-22T01:48:42.278Z,6.50
2022-08-22T01:50:58.058Z,6.95
2022-08-22T01:53:11.713Z,7.03
2022-08-22T01:55:29.000Z,7.35
2022-08-22T01:57:53.063Z,7.10
2022-08-22T02:00:07.803Z,6.72
2022-08-22T02:02:51.408Z,7.28
2022-08-22T02:05:09.300Z,6.30
2022-08-22T02:07:31.990Z,7.90
2022-08-22T02:09:51.313Z,7.20
2022-08-22T02:12:05.622Z,7.20
2022-08-22T02:14:43.531Z,7.57
2022-08-22T02:16:57.795Z,6.85
2022-08-22T02:19:28.218Z,7.10
2022-08-22T02:21:51.300Z,6.82
2022-08-22T02:24:06.323Z,7.90
2022-08-22T02:26:18.414Z,7.30
2022-08-22T02:28:42.426Z,8.15
2022-08-22T02:31:10.374Z,9.30
2022-08-22T02:33:34.076Z,9.57
2022-08-22T02:35:52.275Z,9.75
2022-08-22T02:38:18.268Z,8.70
2022-08-22T02:40:34.274Z,8.45
2022-08-22T02:42:48.132Z,9.32
2022-08-22T02:45:06.431Z,9.15
2022-08-22T02:47:28.967Z,8.82
2022-08-22T02:49:46.323Z,8.25
2022-08-22T02:52:02.278Z,9.45
2022-08-22T02:54:17.304Z,8.63
2022-08-22T02:56:35.921Z,8.55
2022-08-22T02:58:52.331Z,9.45
2022-08-22T03:01:29.213Z,8.80
2022-08-22T03:03:42.205Z,8.43
2022-08-22T03:05:59.131Z,8.93
2022-08-22T03:08:17.505Z,10.10
2022-08-22T03:10:35.886Z,11.10
2022-08-22T03:13:11.893Z,8.95
2022-08-22T03:15:26.839Z,9.70
2022-08-22T03:17:38.541Z,10.20
2022-08-22T03:20:00.439Z,9.02
2022-08-22T03:22:19.785Z,10.65
2022-08-22T03:24:37.182Z,9.85
2022-08-22T03:26:54.551Z,9.93
2022-08-22T03:29:11.600Z,10.15
2022-08-22T03:31:22.541Z,9.73
2022-08-22T03:33:33.620Z,10.65
2022-08-22T03:35:58.614Z,8.90
2022-08-22T03:38:21.780Z,10.15
2022-08-22T03:40:36.801Z,9.23
2022-08-22T03:43:06.648Z,9.90
2022-08-22T03:46:02.036Z,9.50
2022-08-22T03:48:38.465Z,9.02
2022-08-22T03:51:46.281Z,9.70
2022-08-22T03:54:30.455Z,8.70
2022-08-22T03:57:15.639Z,9.80
2022-08-22T03:59:46.931Z,9.68
2022-08-22T04:02:35.825Z,10.07
2022-08-22T04:05:22.139Z,9.60
2022-08-22T04:08:07.787Z,9.75
2022-08-22T04:10:49.820Z,9.80
2022-08-22T04:13:17.478Z,9.77
2022-08-22T04:15:52.748Z,10.02
2022-08-22T04:18:36.377Z,10.27
2022-08-22T04:21:31.877Z,8.98
2022-08-22T04:24:12.353Z,9.93
2022-08-22T04:26:32.363Z,9.70
2022-08-22T04:28:46.258Z,9.30
2022-08-22T04:31:00.201Z,9.73
2022-08-22T04:33:14.448Z,9.88
2022-08-22T04:35:33.044Z,10.55
2022-08-22T04:37:48.242Z,9.93
2022-08-22T04:40:03.491Z,9.13
2022-08-22T04:42:34.866Z,9.20
2022-08-22T04:44:50.369Z,9.20
2022-08-22T04:47:03.424Z,10.10
2022-08-22T04:49:17.526Z,10.02
2022-08-22T04:51:32.609Z,9.80
2022-08-22T04:54:04.120Z,9.80
2022-08-22T04:56:17.461Z,9.60
2022-08-22T04:58:47.100Z,9.27
2022-08-22T05:01:00.268Z,8.50
2022-08-22T05:03:15.350Z,8.15
2022-08-22T05:05:27.203Z,7.80
2022-08-22T05:07:40.211Z,8.02
2022-08-22T05:09:52.364Z,7.90
2022-08-22T05:12:09.077Z,8.48
2022-08-22T05:14:25.256Z,8.10
2022-08-22T05:16:39.132Z,8.02
2022-08-22T05:18:51.513Z,7.63
2022-08-22T05:21:01.670Z,7.10
2022-08-22T05:23:17.627Z,6.63
2022-08-22T05:25:38.291Z,6.63
2022-08-22T05:27:53.311Z,6.70
2022-08-22T05:30:12.631Z,6.82
2022-08-22T05:32:26.718Z,6.97
2022-08-22T05:34:40.554Z,6.82
2022-08-22T05:36:53.000Z,6.63
2022-08-22T05:39:05.991Z,6.57
2022-08-22T05:41:20.300Z,6.85
2022-08-22T05:43:29.663Z,6.47
2022-08-22T05:45:47.757Z,6.65
2022-08-22T05:48:01.019Z,7.00
2022-08-22T05:50:13.858Z,6.68
2022-08-22T05:52:35.042Z,6.10
2022-08-22T05:54:56.466Z,7.13
2022-08-22T05:57:12.094Z,6.20
2022-08-22T05:59:28.991Z,6.00
2022-08-22T06:01:49.199Z,6.60
2022-08-22T06:04:04.398Z,6.07
2022-08-22T06:06:21.316Z,5.57
2022-08-22T06:08:36.295Z,6.00
2022-08-22T06:10:48.452Z,6.53
2022-08-22T06:13:03.374Z,5.70
2022-08-22T06:15:21.333Z,5.70
2022-08-22T06:17:37.564Z,5.90
2022-08-22T06:19:51.125Z,6.23
2022-08-22T06:22:00.585Z,5.07
2022-08-22T06:24:12.438Z,5.13
2022-08-22T06:26:21.917Z,5.57
2022-08-22T06:28:35.102Z,5.00
2022-08-22T06:30:43.801Z,5.03
2022-08-22T06:32:58.964Z,5.53
2022-08-22T06:35:14.182Z,4.97
2022-08-22T06:37:28.228Z,5.57
2022-08-22T06:39:38.951Z,4.60
2022-08-22T06:41:53.856Z,5.17
2022-08-22T06:44:02.233Z,5.20
2022-08-22T06:46:11.231Z,5.20
2022-08-22T06:48:25.226Z,4.00
2022-08-22T06:50:37.202Z,4.43
2022-08-22T06:52:54.482Z,4.97
2022-08-22T06:55:08.646Z,4.67
2022-08-22T06:57:28.031Z,5.00
2022-08-22T06:59:40.982Z,5.00
2022-08-22T07:01:54.749Z,4.80
2022-08-22T07:04:09.610Z,4.20
2022-08-22T07:06:19.693Z,4.50
2022-08-22T07:08:29.391Z,4.00
2022-08-22T07:10:37.989Z,4.23
2022-08-22T07:12:49.624Z,4.33
2022-08-22T07:15:03.097Z,4.73
2022-08-22T07:17:18.913Z,4.93
2022-08-22T07:19:34.419Z,4.87
2022-08-22T07:21:52.253Z,5.27
2022-08-22T07:24:03.540Z,4.63
2022-08-22T07:26:22.739Z,5.03
2022-08-22T07:28:51.268Z,5.07
2022-08-22T07:31:16.994Z,5.23
2022-08-22T07:33:40.291Z,5.10
2022-08-22T07:36:01.592Z,5.00
2022-08-22T07:38:22.127Z,5.43
2022-08-22T07:40:38.139Z,5.97
2022-08-22T07:42:52.665Z,5.40
2022-08-22T07:45:10.082Z,5.07
2022-08-22T07:47:26.636Z,5.70
2022-08-22T07:49:38.762Z,5.70
2022-08-22T07:52:04.783Z,4.90
2022-08-22T07:54:17.234Z,6.03
2022-08-22T07:56:29.017Z,6.20
2022-08-22T07:58:42.041Z,6.87
2022-08-22T08:00:54.214Z,7.20
2022-08-22T08:03:09.802Z,6.43
2022-08-22T08:05:18.176Z,7.00
2022-08-22T08:07:32.278Z,6.43
2022-08-22T08:09:44.858Z,6.60
2022-08-22T08:11:54.290Z,7.43
2022-08-22T08:14:06.051Z,7.20
2022-08-22T08:16:22.902Z,6.80
2022-08-22T08:18:33.966Z,7.18
2022-08-22T08:20:42.349Z,6.38
2022-08-22T08:22:54.992Z,6.25
2022-08-22T08:25:03.904Z,7.00
2022-08-22T08:27:32.491Z,5.65
2022-08-22T08:29:40.841Z,6.38
2022-08-22T08:31:48.972Z,7.25
2022-08-22T08:34:10.842Z,7.38
2022-08-22T08:36:37.052Z,6.90
2022-08-22T08:38:56.546Z,7.35
2022-08-22T08:41:31.271Z,7.28
2022-08-22T08:43:50.020Z,6.60
2022-08-22T08:46:32.854Z,8.02
2022-08-22T08:49:10.620Z,7.78
2022-08-22T08:51:32.456Z,7.63
2022-08-22T08:54:06.559Z,7.90
2022-08-22T08:56:25.647Z,6.88
2022-08-22T08:58:51.135Z,8.00
2022-08-22T09:01:10.109Z,7.55
2022-08-22T09:03:34.475Z,7.60
2022-08-22T09:06:07.337Z,7.40
2022-08-22T09:08:45.453Z,7.60
2022-08-22T09:11:31.068Z,8.20
2022-08-22T09:13:55.423Z,7.28
2022-08-22T09:16:24.714Z,7.50
2022-08-22T09:18:44.389Z,8.15
2022-08-22T09:21:09.326Z,7.43
2022-08-22T09:24:02.685Z,7.60
2022-08-22T09:26:20.253Z,6.90
2022-08-22T09:28:37.214Z,7.20
2022-08-22T09:31:16.647Z,6.67
2022-08-22T09:33:40.930Z,7.47
2022-08-22T09:36:01.095Z,6.87
2022-08-22T09:38:36.135Z,7.70
2022-08-22T09:40:52.496Z,6.37
2022-08-22T09:43:11.082Z,6.90
2022-08-22T09:45:50.216Z,7.00
2022-08-22T09:48:07.178Z,7.07
2022-08-22T09:50:20.947Z,6.70
2022-08-22T09:53:07.773Z,7.00
2022-08-22T09:55:35.522Z,6.83
2022-08-22T09:57:53.484Z,6.77
2022-08-22T10:00:22.254Z,6.80
2022-08-22T10:02:36.102Z,6.77
2022-08-22T10:05:02.049Z,6.67
2022-08-22T10:07:32.328Z,7.10
2022-08-22T10:09:55.446Z,6.57
2022-08-22T10:12:12.856Z,6.23
2022-08-22T10:14:26.770Z,6.70
2022-08-22T10:17:05.481Z,6.93
2022-08-22T10:19:23.606Z,6.40
2022-08-22T10:21:42.662Z,6.10
2022-08-22T10:23:57.443Z,6.50
2022-08-22T10:26:22.884Z,6.30
2022-08-22T10:28:41.392Z,6.00
2022-08-22T10:31:23.825Z,6.73
2022-08-22T10:33:39.769Z,6.23
2022-08-22T10:36:05.105Z,6.37
2022-08-22T10:38:19.630Z,6.20
2022-08-22T10:40:32.202Z,5.60
2022-08-22T10:42:45.232Z,5.47
2022-08-22T10:45:09.430Z,6.50
2022-08-22T10:47:24.207Z,6.60
2022-08-22T10:49:39.740Z,5.43
2022-08-22T10:51:52.275Z,5.43
2022-08-22T10:54:22.404Z,5.40
2022-08-22T10:56:36.965Z,5.70
2022-08-22T10:58:54.999Z,5.37
2022-08-22T11:01:37.063Z,5.70
2022-08-22T11:03:43.037Z,5.40
2022-08-22T11:06:00.081Z,5.40
2022-08-22T11:08:37.675Z,4.53
2022-08-22T11:11:07.355Z,4.90
2022-08-22T11:13:21.097Z,4.77
2022-08-22T11:15:55.015Z,4.63
2022-08-22T11:18:17.409Z,5.13
2022-08-22T11:20:32.095Z,5.23
2022-08-22T11:22:51.466Z,5.70
2022-08-22T11:25:38.458Z,5.77
2022-08-22T11:28:04.087Z,5.10
2022-08-22T11:30:18.283Z,5.77
2022-08-22T11:32:39.039Z,6.07
2022-08-22T11:34:56.573Z,5.20
2022-08-22T11:37:11.688Z,5.67
2022-08-22T11:39:30.621Z,4.97
2022-08-22T11:41:45.541Z,4.97
2022-08-22T11:44:05.147Z,4.87
2022-08-22T11:46:25.538Z,5.37
2022-08-22T11:48:47.071Z,5.33
2022-08-22T11:51:13.463Z,5.23
2022-08-22T11:53:30.330Z,5.20
2022-08-22T11:55:47.896Z,6.13
2022-08-22T11:58:01.957Z,4.80
2022-08-22T12:00:20.849Z,5.30
2022-08-22T12:02:33.778Z,5.13
2022-08-22T12:04:44.914Z,5.10
2022-08-22T12:07:04.662Z,4.67
2022-08-22T12:09:26.206Z,5.80
2022-08-22T12:11:47.696Z,4.77
2022-08-22T12:14:06.387Z,5.57
2022-08-22T12:16:21.824Z,5.60
2022-08-22T12:18:45.178Z,5.30
2022-08-22T12:21:15.190Z,5.20
2022-08-22T12:23:48.990Z,5.47
2022-08-22T12:26:14.720Z,5.27
2022-08-22T12:28:34.751Z,5.40
2022-08-22T12:30:53.562Z,4.60
2022-08-22T12:33:27.996Z,4.80
2022-08-22T12:35:46.010Z,4.90
2022-08-22T12:38:03.770Z,5.07
2022-08-22T12:40:45.275Z,5.27
2022-08-22T12:43:13.467Z,4.60
2022-08-22T12:45:43.606Z,5.20
2022-08-22T12:48:07.301Z,4.90
2022-08-22T12:50:32.074Z,4.80
2022-08-22T12:53:03.744Z,4.57
2022-08-22T12:55:31.099Z,4.50
2022-08-22T12:57:54.441Z,5.33
2022-08-22T13:00:11.853Z,4.90
2022-08-22T13:02:36.181Z,5.00
2022-08-22T13:04:51.120Z,4.97
2022-08-22T13:07:23.950Z,5.30
2022-08-22T13:09:35.788Z,5.00
2022-08-22T13:11:46.621Z,4.90
2022-08-22T13:13:59.786Z,4.83
2022-08-22T13:16:12.417Z,4.90
2022-08-22T13:18:31.105Z,4.23
2022-08-22T13:20:43.429Z,4.80
2022-08-22T13:22:54.382Z,4.77
2022-08-22T13:25:09.048Z,4.97
2022-08-22T13:27:22.381Z,5.47
2022-08-22T13:29:43.015Z,4.37
2022-08-22T13:31:58.470Z,4.40
2022-08-22T13:34:13.137Z,4.73
2022-08-22T13:36:24.505Z,4.50
2022-08-22T13:38:46.270Z,4.70
2022-08-22T13:40:57.138Z,4.57
2022-08-22T13:43:09.239Z,4.30
2022-08-22T13:45:24.469Z,4.27
2022-08-22T13:47:34.493Z,4.37
2022-08-22T13:49:49.637Z,4.40
2022-08-22T13:52:20.619Z,4.47
2022-08-22T13:54:52.667Z,4.20
2022-08-22T13:57:08.202Z,4.47
2022-08-22T13:59:50.012Z,4.00
2022-08-22T14:02:06.843Z,4.40
2022-08-22T14:04:32.154Z,4.33
2022-08-22T14:06:57.180Z,4.23
2022-08-22T14:09:12.455Z,4.93
2022-08-22T14:11:33.053Z,4.93
2022-08-22T14:13:47.815Z,4.10
2022-08-22T14:16:06.723Z,4.60
2022-08-22T14:18:30.302Z,4.50
2022-08-22T14:20:42.489Z,4.60
2022-08-22T14:23:03.861Z,4.90
2022-08-22T14:25:21.535Z,4.77
2022-08-22T14:27:33.356Z,4.43
2022-08-22T14:29:50.119Z,4.27
2022-08-22T14:32:03.531Z,5.00
2022-08-22T14:34:16.539Z,5.03
2022-08-22T14:36:28.958Z,5.23
2022-08-22T14:38:46.089Z,4.60
2022-08-22T14:40:58.904Z,4.43
2022-08-22T14:43:10.716Z,4.73
2022-08-22T14:45:23.225Z,4.70
2022-08-22T14:48:13.999Z,4.57
2022-08-22T14:50:11.160Z,4.90
2022-08-22T14:52:40.643Z,4.70
2022-08-22T14:54:51.313Z,4.80
2022-08-22T14:57:03.699Z,4.67
2022-08-22T14:59:31.257Z,4.60
2022-08-22T15:01:57.511Z,4.77
2022-08-22T15:04:08.786Z,4.87
2022-08-22T15:06:35.244Z,4.30
2022-08-22T15:08:51.627Z,4.97
2022-08-22T15:11:23.090Z,5.70
2022-08-22T15:13:31.881Z,4.50
2022-08-22T15:15:53.548Z,5.50
2022-08-22T15:18:05.096Z,5.10
2022-08-22T15:20:28.527Z,5.30
2022-08-22T15:22:39.048Z,4.60
2022-08-22T15:24:56.251Z,4.70
2022-08-22T15:27:08.035Z,4.50
2022-08-22T15:29:22.274Z,5.00
2022-08-22T15:31:32.313Z,5.13
2022-08-22T15:33:45.391Z,4.97
2022-08-22T15:35:55.406Z,5.00
2022-08-22T15:38:05.426Z,4.77
2022-08-22T15:40:17.017Z,4.83
2022-08-22T15:42:33.756Z,4.97
2022-08-22T15:44:44.185Z,5.03
2022-08-22T15:47:02.684Z,4.90
2022-08-22T15:49:27.767Z,4.80
2022-08-22T15:51:43.471Z,5.37
2022-08-22T15:54:16.046Z,4.60
2022-08-22T15:56:38.230Z,4.70
2022-08-22T15:59:16.043Z,4.80
2022-08-22T16:01:28.682Z,5.00
2022-08-22T16:03:39.516Z,5.10
2022-08-22T16:05:56.156Z,4.67
2022-08-22T16:08:07.979Z,5.10
2022-08-22T16:10:32.518Z,4.97
2022-08-22T16:12:44.113Z,5.00
2022-08-22T16:14:55.561Z,4.20
2022-08-22T16:17:09.409Z,4.80
2022-08-22T16:19:24.247Z,4.40
2022-08-22T16:22:02.241Z,4.97
2022-08-22T16:24:31.645Z,4.83
2022-08-22T16:26:44.173Z,4.80
2022-08-22T16:28:58.868Z,4.40
2022-08-22T16:31:27.326Z,4.90
2022-08-22T16:33:40.667Z,4.97
2022-08-22T16:36:26.197Z,4.33
2022-08-22T16:38:42.631Z,4.70
2022-08-22T16:40:51.376Z,4.80
2022-08-22T16:43:28.950Z,4.50
2022-08-22T16:45:39.392Z,4.70
2022-08-22T16:47:58.605Z,4.80
2022-08-22T16:50:12.501Z,4.63
2022-08-22T16:52:43.818Z,4.53
2022-08-22T16:54:54.881Z,4.50
2022-08-22T16:57:19.220Z,4.90
2022-08-22T16:59:42.166Z,4.30
2022-08-22T17:02:10.694Z,4.50
2022-08-22T17:04:30.663Z,4.60
2022-08-22T17:06:56.506Z,4.10
2022-08-22T17:09:22.688Z,4.90
2022-08-22T17:11:41.956Z,4.70
2022-08-22T17:14:06.752Z,5.07
2022-08-22T17:16:30.198Z,4.10
2022-08-22T17:18:59.642Z,4.00
2022-08-22T17:21:19.088Z,5.10
2022-08-22T17:23:34.904Z,5.10
2022-08-22T17:25:57.290Z,3.87
2022-08-22T17:28:15.812Z,4.83
2022-08-22T17:30:30.462Z,4.83
2022-08-22T17:33:06.850Z,5.00
2022-08-22T17:35:27.864Z,4.37
2022-08-22T17:37:51.993Z,4.00
2022-08-22T17:40:25.931Z,4.50
2022-08-22T17:42:55.269Z,4.67
2022-08-22T17:45:10.069Z,4.23
2022-08-22T17:47:22.750Z,4.53
2022-08-22T17:49:51.634Z,4.70
2022-08-22T17:52:20.245Z,4.20
2022-08-22T17:54:40.524Z,4.50
2022-08-22T17:57:05.362Z,4.43
2022-08-22T17:59:21.136Z,4.78
2022-08-22T18:01:44.167Z,4.50
2022-08-22T18:04:01.140Z,4.83
2022-08-22T18:06:13.144Z,4.90
2022-08-22T18:11:06.649Z,4.45
2022-08-22T18:13:17.547Z,4.78
2022-08-22T18:15:32.206Z,5.10
2022-08-22T18:17:46.460Z,5.20
2022-08-22T18:20:02.502Z,5.30
2022-08-22T18:22:15.846Z,5.00
2022-08-22T18:24:33.263Z,4.90
2022-08-22T18:26:56.321Z,5.22
2022-08-22T18:29:13.736Z,4.88
2022-08-22T18:31:38.694Z,5.45
2022-08-22T18:33:54.607Z,4.82
2022-08-22T18:36:14.284Z,5.10
2022-08-22T18:38:31.072Z,5.63
2022-08-22T18:40:50.313Z,5.47
2022-08-22T18:43:09.984Z,5.70
2022-08-22T18:45:19.052Z,5.28
2022-08-22T18:47:32.010Z,5.72
2022-08-22T18:49:44.885Z,5.93
2022-08-22T18:52:35.080Z,5.20
2022-08-22T18:54:49.566Z,5.82
2022-08-22T18:57:07.100Z,5.28
2022-08-22T18:59:39.748Z,6.05
2022-08-22T19:02:00.035Z,5.40
2022-08-22T19:04:23.788Z,4.93
2022-08-22T19:07:03.863Z,5.10
2022-08-22T19:09:33.448Z,6.00
2022-08-22T19:11:55.336Z,5.60
2022-08-22T19:14:15.891Z,5.45
2022-08-22T19:17:01.015Z,5.38
2022-08-22T19:19:17.522Z,5.32
2022-08-22T19:21:41.869Z,5.55
2022-08-22T19:23:53.039Z,5.10
2022-08-22T19:26:30.696Z,5.43
2022-08-22T19:28:40.249Z,5.50
2022-08-22T19:30:50.934Z,6.45
2022-08-22T19:33:11.872Z,6.25
2022-08-22T19:35:24.933Z,5.38
2022-08-22T19:37:34.167Z,4.75
2022-08-22T19:39:54.430Z,5.28
2022-08-22T19:42:03.000Z,5.45
2022-08-22T19:44:14.282Z,5.40
2022-08-22T19:46:38.577Z,5.30
2022-08-22T19:48:53.000Z,5.70
2022-08-22T19:51:13.251Z,5.68
2022-08-22T19:53:41.787Z,5.65
2022-08-22T19:56:03.596Z,5.45
2022-08-22T19:58:31.887Z,5.22
2022-08-22T20:00:53.807Z,5.22
2022-08-22T20:03:07.445Z,5.20
2022-08-22T20:05:41.501Z,5.22
2022-08-22T20:08:14.291Z,5.47
2022-08-22T20:10:30.125Z,5.97
2022-08-22T20:13:04.647Z,5.30
2022-08-22T20:15:21.838Z,5.20
2022-08-22T20:18:11.537Z,5.70
2022-08-22T20:20:35.676Z,5.57
2022-08-22T20:22:52.845Z,5.40
2022-08-22T20:25:06.302Z,5.40
2022-08-22T20:27:32.571Z,5.30
2022-08-22T20:29:45.467Z,5.95
2022-08-22T20:31:58.590Z,5.20
2022-08-22T20:34:13.043Z,5.50
2022-08-22T20:36:28.574Z,5.35
2022-08-22T20:38:55.612Z,5.30
2022-08-22T20:41:20.161Z,5.50
2022-08-22T20:43:35.314Z,5.30
2022-08-22T20:45:52.889Z,5.60
2022-08-22T20:48:01.110Z,5.00
2022-08-22T20:50:14.106Z,5.50
2022-08-22T20:52:30.419Z,5.50
2022-08-22T20:54:45.875Z,5.18
2022-08-22T20:56:56.021Z,5.70
2022-08-22T20:59:18.920Z,5.40
2022-08-22T21:01:27.235Z,5.72
2022-08-22T21:03:45.936Z,5.50
2022-08-22T21:05:54.006Z,5.43
2022-08-22T21:08:09.247Z,4.93
2022-08-22T21:10:39.445Z,4.70
2022-08-22T21:13:11.697Z,5.20
2022-08-22T21:15:32.922Z,5.75
2022-08-22T21:17:41.490Z,6.38
2022-08-22T21:19:49.575Z,5.70
2022-08-22T21:22:15.015Z,5.05
2022-08-22T21:24:23.708Z,5.53
2022-08-22T21:26:40.952Z,5.60
2022-08-22T21:29:22.360Z,5.88
2022-08-22T21:31:34.212Z,5.43
2022-08-22T21:33:46.582Z,5.72
2022-08-22T21:36:00.393Z,5.80
2022-08-22T21:38:09.010Z,5.25
2022-08-22T21:40:21.455Z,5.32
2022-08-22T21:42:38.394Z,5.90
2022-08-22T21:44:59.257Z,5.50
2022-08-22T21:47:30.220Z,5.30
2022-08-22T21:49:39.521Z,5.88
2022-08-22T21:51:49.467Z,5.28
2022-08-22T21:54:28.136Z,5.72
2022-08-22T21:56:36.315Z,5.60
2022-08-22T21:58:47.720Z,5.03
2022-08-22T22:00:57.934Z,5.75
2022-08-22T22:03:07.403Z,5.65
2022-08-22T22:05:17.795Z,5.25
2022-08-22T22:07:28.593Z,5.28
2022-08-22T22:09:36.924Z,5.07
2022-08-22T22:11:48.155Z,4.88
2022-08-22T22:13:59.851Z,5.03
2022-08-22T22:16:12.630Z,5.05
2022-08-22T22:18:28.525Z,4.65
2022-08-22T22:20:37.232Z,5.13
2022-08-22T22:22:46.617Z,4.95
2022-08-22T22:24:54.833Z,5.13
2022-08-22T22:27:04.662Z,5.70
2022-08-22T22:29:15.309Z,5.20
2022-08-22T22:31:25.067Z,4.85
2022-08-22T22:33:36.201Z,4.70
2022-08-22T22:35:44.465Z,5.10
2022-08-22T22:37:52.475Z,5.25
2022-08-22T22:40:01.197Z,5.60
2022-08-22T22:42:15.727Z,5.70
2022-08-22T22:44:27.427Z,4.88
2022-08-22T22:46:37.189Z,4.88
2022-08-22T22:48:45.143Z,5.25
2022-08-22T22:50:53.057Z,4.50
2022-08-22T22:53:01.677Z,5.05
2022-08-22T22:55:11.634Z,4.75
2022-08-22T22:57:32.867Z,4.72
2022-08-22T22:59:53.549Z,4.50
2022-08-22T23:02:08.098Z,4.82
2022-08-22T23:04:16.192Z,5.00
2022-08-22T23:06:26.900Z,5.00
2022-08-22T23:08:36.268Z,4.70
2022-08-22T23:10:44.664Z,4.43
2022-08-22T23:12:53.750Z,4.43
2022-08-22T23:15:04.827Z,4.40
2022-08-22T23:17:13.599Z,4.90
2022-08-22T23:19:22.091Z,5.00
2022-08-22T23:21:33.030Z,4.75
2022-08-22T23:23:41.434Z,4.70
2022-08-22T23:25:50.009Z,4.25
2022-08-22T23:27:59.735Z,4.30
2022-08-22T23:30:13.281Z,4.35
2022-08-22T23:32:21.091Z,3.90
2022-08-22T23:34:33.616Z,4.55
2022-08-22T23:36:43.532Z,4.80
2022-08-22T23:38:52.972Z,4.20
2022-08-22T23:41:09.806Z,4.35
2022-08-22T23:43:18.197Z,4.63
2022-08-22T23:45:28.783Z,4.15
2022-08-22T23:47:36.893Z,4.68
2022-08-22T23:49:46.014Z,5.03
2022-08-22T23:51:54.494Z,4.60
2022-08-22T23:54:04.163Z,4.18
2022-08-22T23:56:19.490Z,4.60
2022-08-22T23:58:28.043Z,4.45
